sensor_id;sensor_type;location;lat;lon;timestamp;P1;durP1;ratioP1;P2;durP2;ratioP2
24859;SDS011;12936;52.006;4.350;2024-01-30T00:00:42;17.57;;;8.97;;
24859;SDS011;12936;52.006;4.350;2024-01-30T00:03:11;13.27;;;9.33;;
24859;SDS011;12936;52.006;4.350;2024-01-30T00:05:41;12.93;;;8.60;;
24859;SDS011;12936;52.006;4.350;2024-01-30T00:08:11;15.83;;;9.53;;
24859;SDS011;12936;52.006;4.350;2024-01-30T00:10:41;11.23;;;8.83;;
24859;SDS011;12936;52.006;4.350;2024-01-30T00:13:52;13.43;;;8.63;;
24859;SDS011;12936;52.006;4.350;2024-01-30T00:16:21;12.07;;;7.97;;
24859;SDS011;12936;52.006;4.350;2024-01-30T00:18:52;11.63;;;8.00;;
24859;SDS011;12936;52.006;4.350;2024-01-30T00:21:22;15.17;;;8.40;;
24859;SDS011;12936;52.006;4.350;2024-01-30T00:23:50;12.07;;;8.70;;
24859;SDS011;12936;52.006;4.350;2024-01-30T00:26:19;11.73;;;8.10;;
24859;SDS011;12936;52.006;4.350;2024-01-30T00:28:48;12.47;;;8.20;;
24859;SDS011;12936;52.006;4.350;2024-01-30T00:31:21;13.33;;;8.97;;
24859;SDS011;12936;52.006;4.350;2024-01-30T00:33:53;12.37;;;8.47;;
24859;SDS011;12936;52.006;4.350;2024-01-30T00:36:27;11.50;;;7.47;;
24859;SDS011;12936;52.006;4.350;2024-01-30T00:39:04;13.20;;;8.13;;
24859;SDS011;12936;52.006;4.350;2024-01-30T00:41:35;11.37;;;7.73;;
24859;SDS011;12936;52.006;4.350;2024-01-30T00:44:03;10.87;;;7.77;;
24859;SDS011;12936;52.006;4.350;2024-01-30T00:46:33;8.53;;;7.40;;
24859;SDS011;12936;52.006;4.350;2024-01-30T00:49:02;10.67;;;7.50;;
24859;SDS011;12936;52.006;4.350;2024-01-30T00:51:39;10.50;;;7.63;;
24859;SDS011;12936;52.006;4.350;2024-01-30T00:54:07;12.57;;;8.07;;
24859;SDS011;12936;52.006;4.350;2024-01-30T00:56:38;11.97;;;7.87;;
24859;SDS011;12936;52.006;4.350;2024-01-30T00:59:09;13.63;;;8.00;;
24859;SDS011;12936;52.006;4.350;2024-01-30T01:01:40;10.57;;;7.73;;
24859;SDS011;12936;52.006;4.350;2024-01-30T01:04:09;10.77;;;7.87;;
24859;SDS011;12936;52.006;4.350;2024-01-30T01:06:42;10.67;;;7.63;;
24859;SDS011;12936;52.006;4.350;2024-01-30T01:09:12;14.33;;;8.20;;
24859;SDS011;12936;52.006;4.350;2024-01-30T01:11:43;13.03;;;7.77;;
24859;SDS011;12936;52.006;4.350;2024-01-30T01:14:34;10.43;;;7.63;;
24859;SDS011;12936;52.006;4.350;2024-01-30T01:17:04;10.80;;;7.53;;
24859;SDS011;12936;52.006;4.350;2024-01-30T01:19:36;12.17;;;8.10;;
24859;SDS011;12936;52.006;4.350;2024-01-30T01:22:07;12.03;;;8.17;;
24859;SDS011;12936;52.006;4.350;2024-01-30T01:24:38;10.90;;;7.47;;
24859;SDS011;12936;52.006;4.350;2024-01-30T01:27:10;10.10;;;7.53;;
24859;SDS011;12936;52.006;4.350;2024-01-30T01:29:43;13.23;;;8.07;;
24859;SDS011;12936;52.006;4.350;2024-01-30T01:32:19;17.10;;;7.63;;
24859;SDS011;12936;52.006;4.350;2024-01-30T01:34:48;10.60;;;8.30;;
24859;SDS011;12936;52.006;4.350;2024-01-30T01:37:39;11.33;;;7.87;;
24859;SDS011;12936;52.006;4.350;2024-01-30T01:40:08;10.57;;;7.50;;
24859;SDS011;12936;52.006;4.350;2024-01-30T01:42:38;11.33;;;7.40;;
24859;SDS011;12936;52.006;4.350;2024-01-30T01:45:08;11.07;;;8.00;;
24859;SDS011;12936;52.006;4.350;2024-01-30T01:47:39;9.90;;;7.63;;
24859;SDS011;12936;52.006;4.350;2024-01-30T01:50:31;11.00;;;7.43;;
24859;SDS011;12936;52.006;4.350;2024-01-30T01:53:02;10.27;;;7.63;;
24859;SDS011;12936;52.006;4.350;2024-01-30T01:55:33;10.73;;;8.00;;
24859;SDS011;12936;52.006;4.350;2024-01-30T01:58:05;11.20;;;7.67;;
24859;SDS011;12936;52.006;4.350;2024-01-30T02:00:56;12.13;;;7.50;;
24859;SDS011;12936;52.006;4.350;2024-01-30T02:03:30;12.77;;;7.30;;
24859;SDS011;12936;52.006;4.350;2024-01-30T02:06:00;16.10;;;8.13;;
24859;SDS011;12936;52.006;4.350;2024-01-30T02:08:35;11.93;;;7.67;;
24859;SDS011;12936;52.006;4.350;2024-01-30T02:11:06;10.33;;;7.80;;
24859;SDS011;12936;52.006;4.350;2024-01-30T02:13:36;9.53;;;7.30;;
24859;SDS011;12936;52.006;4.350;2024-01-30T02:16:05;10.97;;;7.30;;
24859;SDS011;12936;52.006;4.350;2024-01-30T02:18:35;10.30;;;7.27;;
24859;SDS011;12936;52.006;4.350;2024-01-30T02:21:18;10.47;;;7.97;;
24859;SDS011;12936;52.006;4.350;2024-01-30T02:24:22;11.63;;;7.30;;
24859;SDS011;12936;52.006;4.350;2024-01-30T02:27:17;12.17;;;7.60;;
24859;SDS011;12936;52.006;4.350;2024-01-30T02:29:50;10.93;;;7.60;;
24859;SDS011;12936;52.006;4.350;2024-01-30T02:32:22;11.83;;;7.70;;
24859;SDS011;12936;52.006;4.350;2024-01-30T02:35:12;14.67;;;7.80;;
24859;SDS011;12936;52.006;4.350;2024-01-30T02:37:43;9.97;;;7.27;;
24859;SDS011;12936;52.006;4.350;2024-01-30T02:40:13;11.73;;;8.43;;
24859;SDS011;12936;52.006;4.350;2024-01-30T02:42:45;10.03;;;7.43;;
24859;SDS011;12936;52.006;4.350;2024-01-30T02:45:14;11.20;;;7.67;;
24859;SDS011;12936;52.006;4.350;2024-01-30T02:47:45;12.03;;;7.93;;
24859;SDS011;12936;52.006;4.350;2024-01-30T02:50:18;12.07;;;7.40;;
24859;SDS011;12936;52.006;4.350;2024-01-30T02:52:49;11.03;;;7.70;;
24859;SDS011;12936;52.006;4.350;2024-01-30T02:55:17;13.70;;;7.53;;
24859;SDS011;12936;52.006;4.350;2024-01-30T02:57:48;13.03;;;7.70;;
24859;SDS011;12936;52.006;4.350;2024-01-30T03:00:16;10.53;;;7.37;;
24859;SDS011;12936;52.006;4.350;2024-01-30T03:02:49;11.13;;;7.97;;
24859;SDS011;12936;52.006;4.350;2024-01-30T03:05:19;11.13;;;8.03;;
24859;SDS011;12936;52.006;4.350;2024-01-30T03:08:12;12.97;;;7.77;;
24859;SDS011;12936;52.006;4.350;2024-01-30T03:10:43;13.00;;;8.17;;
24859;SDS011;12936;52.006;4.350;2024-01-30T03:13:11;10.77;;;7.80;;
24859;SDS011;12936;52.006;4.350;2024-01-30T03:16:01;10.20;;;7.60;;
24859;SDS011;12936;52.006;4.350;2024-01-30T03:18:29;12.03;;;7.93;;
24859;SDS011;12936;52.006;4.350;2024-01-30T03:20:59;12.67;;;8.03;;
24859;SDS011;12936;52.006;4.350;2024-01-30T03:23:30;12.50;;;8.30;;
24859;SDS011;12936;52.006;4.350;2024-01-30T03:26:01;12.73;;;7.50;;
24859;SDS011;12936;52.006;4.350;2024-01-30T03:28:33;10.47;;;7.73;;
24859;SDS011;12936;52.006;4.350;2024-01-30T03:31:02;11.47;;;8.13;;
24859;SDS011;12936;52.006;4.350;2024-01-30T03:33:32;11.70;;;7.87;;
24859;SDS011;12936;52.006;4.350;2024-01-30T03:36:03;11.60;;;8.00;;
24859;SDS011;12936;52.006;4.350;2024-01-30T03:38:34;11.33;;;7.57;;
24859;SDS011;12936;52.006;4.350;2024-01-30T03:41:07;9.57;;;7.30;;
24859;SDS011;12936;52.006;4.350;2024-01-30T03:44:02;12.13;;;8.10;;
24859;SDS011;12936;52.006;4.350;2024-01-30T03:46:32;10.47;;;8.17;;
24859;SDS011;12936;52.006;4.350;2024-01-30T03:49:01;13.10;;;7.50;;
24859;SDS011;12936;52.006;4.350;2024-01-30T03:51:31;9.77;;;7.37;;
24859;SDS011;12936;52.006;4.350;2024-01-30T03:54:04;12.57;;;8.07;;
24859;SDS011;12936;52.006;4.350;2024-01-30T03:56:36;13.17;;;7.60;;
24859;SDS011;12936;52.006;4.350;2024-01-30T03:59:06;14.60;;;8.20;;
24859;SDS011;12936;52.006;4.350;2024-01-30T04:01:34;13.23;;;8.20;;
24859;SDS011;12936;52.006;4.350;2024-01-30T04:04:03;11.70;;;8.27;;
24859;SDS011;12936;52.006;4.350;2024-01-30T04:06:33;12.27;;;8.00;;
24859;SDS011;12936;52.006;4.350;2024-01-30T04:09:06;11.40;;;7.40;;
24859;SDS011;12936;52.006;4.350;2024-01-30T04:12:00;11.23;;;8.47;;
24859;SDS011;12936;52.006;4.350;2024-01-30T04:14:31;14.57;;;7.47;;
24859;SDS011;12936;52.006;4.350;2024-01-30T04:17:00;12.10;;;8.07;;
24859;SDS011;12936;52.006;4.350;2024-01-30T04:19:29;11.00;;;8.53;;
24859;SDS011;12936;52.006;4.350;2024-01-30T04:21:58;11.93;;;7.63;;
24859;SDS011;12936;52.006;4.350;2024-01-30T04:24:31;12.47;;;7.93;;
24859;SDS011;12936;52.006;4.350;2024-01-30T04:27:20;9.97;;;7.47;;
24859;SDS011;12936;52.006;4.350;2024-01-30T04:30:11;10.97;;;7.83;;
24859;SDS011;12936;52.006;4.350;2024-01-30T04:32:39;12.83;;;8.23;;
24859;SDS011;12936;52.006;4.350;2024-01-30T04:35:09;13.67;;;7.33;;
24859;SDS011;12936;52.006;4.350;2024-01-30T04:37:39;12.03;;;8.00;;
24859;SDS011;12936;52.006;4.350;2024-01-30T04:40:10;13.47;;;7.87;;
24859;SDS011;12936;52.006;4.350;2024-01-30T04:42:40;13.17;;;8.07;;
24859;SDS011;12936;52.006;4.350;2024-01-30T04:45:08;12.93;;;7.97;;
24859;SDS011;12936;52.006;4.350;2024-01-30T04:47:41;11.63;;;7.87;;
24859;SDS011;12936;52.006;4.350;2024-01-30T04:50:30;12.90;;;8.13;;
24859;SDS011;12936;52.006;4.350;2024-01-30T04:53:01;12.83;;;8.10;;
24859;SDS011;12936;52.006;4.350;2024-01-30T04:55:31;11.33;;;8.37;;
24859;SDS011;12936;52.006;4.350;2024-01-30T04:58:01;10.23;;;7.83;;
24859;SDS011;12936;52.006;4.350;2024-01-30T05:00:30;11.23;;;7.30;;
24859;SDS011;12936;52.006;4.350;2024-01-30T05:03:00;12.70;;;7.20;;
24859;SDS011;12936;52.006;4.350;2024-01-30T05:05:30;9.17;;;7.53;;
24859;SDS011;12936;52.006;4.350;2024-01-30T05:07:59;11.07;;;7.67;;
24859;SDS011;12936;52.006;4.350;2024-01-30T05:10:35;13.80;;;7.43;;
24859;SDS011;12936;52.006;4.350;2024-01-30T05:13:11;14.90;;;8.00;;
24859;SDS011;12936;52.006;4.350;2024-01-30T05:15:41;15.07;;;7.87;;
24859;SDS011;12936;52.006;4.350;2024-01-30T05:18:11;10.37;;;7.10;;
24859;SDS011;12936;52.006;4.350;2024-01-30T05:20:41;12.33;;;7.43;;
24859;SDS011;12936;52.006;4.350;2024-01-30T05:23:11;13.40;;;8.10;;
24859;SDS011;12936;52.006;4.350;2024-01-30T05:25:42;14.40;;;7.80;;
24859;SDS011;12936;52.006;4.350;2024-01-30T05:28:11;13.20;;;7.90;;
24859;SDS011;12936;52.006;4.350;2024-01-30T05:30:39;12.83;;;7.97;;
24859;SDS011;12936;52.006;4.350;2024-01-30T05:33:07;13.07;;;7.30;;
24859;SDS011;12936;52.006;4.350;2024-01-30T05:35:36;10.63;;;7.40;;
24859;SDS011;12936;52.006;4.350;2024-01-30T05:38:04;10.97;;;7.57;;
24859;SDS011;12936;52.006;4.350;2024-01-30T05:40:32;15.70;;;7.20;;
24859;SDS011;12936;52.006;4.350;2024-01-30T05:43:02;11.67;;;7.77;;
24859;SDS011;12936;52.006;4.350;2024-01-30T05:45:30;11.00;;;7.20;;
24859;SDS011;12936;52.006;4.350;2024-01-30T05:48:19;14.37;;;6.90;;
24859;SDS011;12936;52.006;4.350;2024-01-30T05:50:47;13.97;;;7.50;;
24859;SDS011;12936;52.006;4.350;2024-01-30T05:53:16;12.87;;;7.40;;
24859;SDS011;12936;52.006;4.350;2024-01-30T05:55:44;14.70;;;7.00;;
24859;SDS011;12936;52.006;4.350;2024-01-30T05:58:14;12.03;;;7.63;;
24859;SDS011;12936;52.006;4.350;2024-01-30T06:00:42;10.70;;;6.53;;
24859;SDS011;12936;52.006;4.350;2024-01-30T06:03:12;13.50;;;8.17;;
24859;SDS011;12936;52.006;4.350;2024-01-30T06:05:40;11.10;;;7.33;;
24859;SDS011;12936;52.006;4.350;2024-01-30T06:08:09;11.30;;;7.07;;
24859;SDS011;12936;52.006;4.350;2024-01-30T06:10:38;9.17;;;6.60;;
24859;SDS011;12936;52.006;4.350;2024-01-30T06:13:06;11.77;;;7.10;;
24859;SDS011;12936;52.006;4.350;2024-01-30T06:15:38;12.43;;;7.77;;
24859;SDS011;12936;52.006;4.350;2024-01-30T06:18:07;15.70;;;7.37;;
24859;SDS011;12936;52.006;4.350;2024-01-30T06:20:38;15.37;;;7.20;;
24859;SDS011;12936;52.006;4.350;2024-01-30T06:23:06;11.83;;;8.17;;
24859;SDS011;12936;52.006;4.350;2024-01-30T06:25:35;14.83;;;7.20;;
24859;SDS011;12936;52.006;4.350;2024-01-30T06:28:03;16.37;;;7.77;;
24859;SDS011;12936;52.006;4.350;2024-01-30T06:30:32;11.83;;;6.70;;
24859;SDS011;12936;52.006;4.350;2024-01-30T06:33:04;13.30;;;7.30;;
24859;SDS011;12936;52.006;4.350;2024-01-30T06:35:32;13.83;;;7.10;;
24859;SDS011;12936;52.006;4.350;2024-01-30T06:38:02;8.53;;;6.90;;
24859;SDS011;12936;52.006;4.350;2024-01-30T06:40:31;11.00;;;7.20;;
24859;SDS011;12936;52.006;4.350;2024-01-30T06:42:59;15.57;;;7.43;;
24859;SDS011;12936;52.006;4.350;2024-01-30T06:45:27;12.70;;;7.37;;
24859;SDS011;12936;52.006;4.350;2024-01-30T06:47:56;12.53;;;7.87;;
24859;SDS011;12936;52.006;4.350;2024-01-30T06:50:34;10.83;;;6.80;;
24859;SDS011;12936;52.006;4.350;2024-01-30T06:53:02;10.30;;;6.47;;
24859;SDS011;12936;52.006;4.350;2024-01-30T06:55:31;13.30;;;7.03;;
24859;SDS011;12936;52.006;4.350;2024-01-30T06:57:59;13.40;;;7.27;;
24859;SDS011;12936;52.006;4.350;2024-01-30T07:00:27;13.20;;;7.37;;
24859;SDS011;12936;52.006;4.350;2024-01-30T07:02:56;13.57;;;7.57;;
24859;SDS011;12936;52.006;4.350;2024-01-30T07:05:24;15.13;;;8.10;;
24859;SDS011;12936;52.006;4.350;2024-01-30T07:07:54;15.73;;;7.40;;
24859;SDS011;12936;52.006;4.350;2024-01-30T07:10:24;10.40;;;6.73;;
24859;SDS011;12936;52.006;4.350;2024-01-30T07:12:52;13.47;;;7.20;;
24859;SDS011;12936;52.006;4.350;2024-01-30T07:15:21;12.10;;;7.40;;
24859;SDS011;12936;52.006;4.350;2024-01-30T07:17:49;10.13;;;6.53;;
24859;SDS011;12936;52.006;4.350;2024-01-30T07:20:17;17.20;;;7.93;;
24859;SDS011;12936;52.006;4.350;2024-01-30T07:22:47;12.30;;;7.73;;
24859;SDS011;12936;52.006;4.350;2024-01-30T07:25:16;21.43;;;7.93;;
24859;SDS011;12936;52.006;4.350;2024-01-30T07:27:45;14.47;;;8.50;;
24859;SDS011;12936;52.006;4.350;2024-01-30T07:30:13;14.17;;;8.13;;
24859;SDS011;12936;52.006;4.350;2024-01-30T07:32:43;12.93;;;8.07;;
24859;SDS011;12936;52.006;4.350;2024-01-30T07:35:14;14.40;;;7.70;;
24859;SDS011;12936;52.006;4.350;2024-01-30T07:37:43;11.27;;;7.30;;
24859;SDS011;12936;52.006;4.350;2024-01-30T07:40:11;15.97;;;7.90;;
24859;SDS011;12936;52.006;4.350;2024-01-30T07:42:42;12.60;;;8.07;;
24859;SDS011;12936;52.006;4.350;2024-01-30T07:45:10;13.90;;;7.37;;
24859;SDS011;12936;52.006;4.350;2024-01-30T07:47:39;19.97;;;8.10;;
24859;SDS011;12936;52.006;4.350;2024-01-30T07:50:08;14.83;;;7.20;;
24859;SDS011;12936;52.006;4.350;2024-01-30T07:52:37;15.07;;;8.00;;
24859;SDS011;12936;52.006;4.350;2024-01-30T07:55:07;14.97;;;7.83;;
24859;SDS011;12936;52.006;4.350;2024-01-30T07:57:58;18.93;;;9.33;;
24859;SDS011;12936;52.006;4.350;2024-01-30T08:00:26;17.50;;;8.73;;
24859;SDS011;12936;52.006;4.350;2024-01-30T08:02:55;19.43;;;7.83;;
24859;SDS011;12936;52.006;4.350;2024-01-30T08:05:25;16.73;;;8.03;;
24859;SDS011;12936;52.006;4.350;2024-01-30T08:07:54;16.30;;;8.73;;
24859;SDS011;12936;52.006;4.350;2024-01-30T08:10:22;12.00;;;7.60;;
24859;SDS011;12936;52.006;4.350;2024-01-30T08:12:50;18.33;;;8.07;;
24859;SDS011;12936;52.006;4.350;2024-01-30T08:15:20;17.77;;;8.77;;
24859;SDS011;12936;52.006;4.350;2024-01-30T08:17:49;19.17;;;7.47;;
24859;SDS011;12936;52.006;4.350;2024-01-30T08:20:22;15.37;;;7.50;;
24859;SDS011;12936;52.006;4.350;2024-01-30T08:22:50;14.57;;;8.30;;
24859;SDS011;12936;52.006;4.350;2024-01-30T08:25:18;11.60;;;7.70;;
24859;SDS011;12936;52.006;4.350;2024-01-30T08:27:48;15.17;;;8.10;;
24859;SDS011;12936;52.006;4.350;2024-01-30T08:30:18;15.73;;;7.37;;
24859;SDS011;12936;52.006;4.350;2024-01-30T08:32:48;15.33;;;7.53;;
24859;SDS011;12936;52.006;4.350;2024-01-30T08:35:16;16.47;;;8.90;;
24859;SDS011;12936;52.006;4.350;2024-01-30T08:37:44;12.30;;;7.57;;
24859;SDS011;12936;52.006;4.350;2024-01-30T08:40:13;14.50;;;7.63;;
24859;SDS011;12936;52.006;4.350;2024-01-30T08:42:42;20.83;;;7.97;;
24859;SDS011;12936;52.006;4.350;2024-01-30T08:45:11;13.67;;;7.87;;
24859;SDS011;12936;52.006;4.350;2024-01-30T08:47:41;14.43;;;7.83;;
24859;SDS011;12936;52.006;4.350;2024-01-30T08:50:10;20.10;;;8.50;;
24859;SDS011;12936;52.006;4.350;2024-01-30T08:52:39;18.27;;;8.33;;
24859;SDS011;12936;52.006;4.350;2024-01-30T08:55:07;17.53;;;8.23;;
24859;SDS011;12936;52.006;4.350;2024-01-30T08:57:35;21.07;;;8.53;;
24859;SDS011;12936;52.006;4.350;2024-01-30T09:00:04;15.87;;;8.13;;
24859;SDS011;12936;52.006;4.350;2024-01-30T09:02:35;15.00;;;8.00;;
24859;SDS011;12936;52.006;4.350;2024-01-30T09:05:05;25.40;;;9.43;;
24859;SDS011;12936;52.006;4.350;2024-01-30T09:07:35;11.03;;;6.90;;
24859;SDS011;12936;52.006;4.350;2024-01-30T09:10:03;13.30;;;6.67;;
24859;SDS011;12936;52.006;4.350;2024-01-30T09:12:35;13.70;;;7.77;;
24859;SDS011;12936;52.006;4.350;2024-01-30T09:15:03;12.93;;;6.77;;
24859;SDS011;12936;52.006;4.350;2024-01-30T09:17:32;20.73;;;7.87;;
24859;SDS011;12936;52.006;4.350;2024-01-30T09:20:00;12.50;;;5.47;;
24859;SDS011;12936;52.006;4.350;2024-01-30T09:22:32;15.80;;;6.40;;
24859;SDS011;12936;52.006;4.350;2024-01-30T09:25:02;16.43;;;6.97;;
24859;SDS011;12936;52.006;4.350;2024-01-30T09:27:33;17.13;;;6.23;;
24859;SDS011;12936;52.006;4.350;2024-01-30T09:30:27;18.17;;;4.40;;
24859;SDS011;12936;52.006;4.350;2024-01-30T09:32:57;8.00;;;1.97;;
24859;SDS011;12936;52.006;4.350;2024-01-30T09:35:25;13.00;;;3.77;;
24859;SDS011;12936;52.006;4.350;2024-01-30T09:37:57;11.53;;;2.93;;
24859;SDS011;12936;52.006;4.350;2024-01-30T09:40:29;11.07;;;2.70;;
24859;SDS011;12936;52.006;4.350;2024-01-30T09:42:57;10.07;;;2.20;;
24859;SDS011;12936;52.006;4.350;2024-01-30T09:45:27;17.13;;;2.60;;
24859;SDS011;12936;52.006;4.350;2024-01-30T09:47:58;11.83;;;2.87;;
24859;SDS011;12936;52.006;4.350;2024-01-30T09:50:27;11.47;;;2.53;;
24859;SDS011;12936;52.006;4.350;2024-01-30T09:52:57;6.97;;;1.80;;
24859;SDS011;12936;52.006;4.350;2024-01-30T09:55:26;7.30;;;1.47;;
24859;SDS011;12936;52.006;4.350;2024-01-30T09:57:55;7.47;;;2.17;;
24859;SDS011;12936;52.006;4.350;2024-01-30T10:00:23;11.30;;;2.33;;
24859;SDS011;12936;52.006;4.350;2024-01-30T10:02:54;11.50;;;2.10;;
24859;SDS011;12936;52.006;4.350;2024-01-30T10:05:22;7.73;;;2.13;;
24859;SDS011;12936;52.006;4.350;2024-01-30T10:07:56;8.47;;;1.40;;
24859;SDS011;12936;52.006;4.350;2024-01-30T10:10:28;5.23;;;1.10;;
24859;SDS011;12936;52.006;4.350;2024-01-30T10:12:57;9.63;;;1.37;;
24859;SDS011;12936;52.006;4.350;2024-01-30T10:15:29;9.90;;;1.80;;
24859;SDS011;12936;52.006;4.350;2024-01-30T10:17:57;4.17;;;1.00;;
24859;SDS011;12936;52.006;4.350;2024-01-30T10:20:25;7.73;;;1.10;;
24859;SDS011;12936;52.006;4.350;2024-01-30T10:22:54;7.67;;;1.10;;
24859;SDS011;12936;52.006;4.350;2024-01-30T10:25:24;9.27;;;1.40;;
24859;SDS011;12936;52.006;4.350;2024-01-30T10:27:53;10.07;;;1.47;;
24859;SDS011;12936;52.006;4.350;2024-01-30T10:30:22;6.20;;;0.87;;
24859;SDS011;12936;52.006;4.350;2024-01-30T10:32:50;10.10;;;1.00;;
24859;SDS011;12936;52.006;4.350;2024-01-30T10:35:19;9.23;;;1.20;;
24859;SDS011;12936;52.006;4.350;2024-01-30T10:37:47;8.97;;;1.67;;
24859;SDS011;12936;52.006;4.350;2024-01-30T10:40:15;7.33;;;1.50;;
24859;SDS011;12936;52.006;4.350;2024-01-30T10:42:45;7.00;;;0.70;;
24859;SDS011;12936;52.006;4.350;2024-01-30T10:45:14;13.07;;;1.83;;
24859;SDS011;12936;52.006;4.350;2024-01-30T10:47:43;8.60;;;1.80;;
24859;SDS011;12936;52.006;4.350;2024-01-30T10:50:15;6.37;;;1.10;;
24859;SDS011;12936;52.006;4.350;2024-01-30T10:52:44;4.27;;;0.80;;
24859;SDS011;12936;52.006;4.350;2024-01-30T10:55:13;6.43;;;1.23;;
24859;SDS011;12936;52.006;4.350;2024-01-30T10:57:43;7.13;;;1.33;;
24859;SDS011;12936;52.006;4.350;2024-01-30T11:00:13;8.30;;;1.70;;
24859;SDS011;12936;52.006;4.350;2024-01-30T11:02:43;5.70;;;1.60;;
24859;SDS011;12936;52.006;4.350;2024-01-30T11:05:13;8.30;;;2.03;;
24859;SDS011;12936;52.006;4.350;2024-01-30T11:07:42;7.17;;;1.87;;
24859;SDS011;12936;52.006;4.350;2024-01-30T11:10:11;7.40;;;1.40;;
24859;SDS011;12936;52.006;4.350;2024-01-30T11:12:42;12.27;;;1.50;;
24859;SDS011;12936;52.006;4.350;2024-01-30T11:15:14;5.87;;;1.00;;
24859;SDS011;12936;52.006;4.350;2024-01-30T11:17:44;11.80;;;2.07;;
24859;SDS011;12936;52.006;4.350;2024-01-30T11:20:19;8.40;;;1.53;;
24859;SDS011;12936;52.006;4.350;2024-01-30T11:23:08;3.93;;;1.07;;
24859;SDS011;12936;52.006;4.350;2024-01-30T11:25:39;12.83;;;1.73;;
24859;SDS011;12936;52.006;4.350;2024-01-30T11:28:12;9.03;;;1.40;;
24859;SDS011;12936;52.006;4.350;2024-01-30T11:30:44;7.67;;;1.43;;
24859;SDS011;12936;52.006;4.350;2024-01-30T11:33:14;10.23;;;2.33;;
24859;SDS011;12936;52.006;4.350;2024-01-30T11:35:43;16.37;;;1.90;;
24859;SDS011;12936;52.006;4.350;2024-01-30T11:38:13;10.60;;;2.00;;
24859;SDS011;12936;52.006;4.350;2024-01-30T11:40:42;9.50;;;1.60;;
24859;SDS011;12936;52.006;4.350;2024-01-30T11:43:11;9.57;;;1.73;;
24859;SDS011;12936;52.006;4.350;2024-01-30T11:45:40;11.53;;;1.27;;
24859;SDS011;12936;52.006;4.350;2024-01-30T11:48:30;9.70;;;1.70;;
24859;SDS011;12936;52.006;4.350;2024-01-30T11:50:58;9.60;;;1.10;;
24859;SDS011;12936;52.006;4.350;2024-01-30T11:53:29;10.40;;;1.50;;
24859;SDS011;12936;52.006;4.350;2024-01-30T11:55:57;7.60;;;1.10;;
24859;SDS011;12936;52.006;4.350;2024-01-30T11:58:26;7.40;;;1.60;;
24859;SDS011;12936;52.006;4.350;2024-01-30T12:00:55;9.80;;;1.83;;
24859;SDS011;12936;52.006;4.350;2024-01-30T12:03:24;13.20;;;2.10;;
24859;SDS011;12936;52.006;4.350;2024-01-30T12:05:57;7.53;;;1.23;;
24859;SDS011;12936;52.006;4.350;2024-01-30T12:08:26;11.67;;;1.83;;
24859;SDS011;12936;52.006;4.350;2024-01-30T12:10:55;12.43;;;1.63;;
24859;SDS011;12936;52.006;4.350;2024-01-30T12:13:25;13.23;;;1.90;;
24859;SDS011;12936;52.006;4.350;2024-01-30T12:15:58;11.43;;;2.47;;
24859;SDS011;12936;52.006;4.350;2024-01-30T12:18:28;10.80;;;1.70;;
24859;SDS011;12936;52.006;4.350;2024-01-30T12:20:58;10.77;;;2.07;;
24859;SDS011;12936;52.006;4.350;2024-01-30T12:23:27;8.90;;;1.60;;
24859;SDS011;12936;52.006;4.350;2024-01-30T12:25:56;11.03;;;1.63;;
24859;SDS011;12936;52.006;4.350;2024-01-30T12:28:25;7.67;;;1.60;;
24859;SDS011;12936;52.006;4.350;2024-01-30T12:30:55;6.07;;;1.47;;
24859;SDS011;12936;52.006;4.350;2024-01-30T12:33:26;6.60;;;1.40;;
24859;SDS011;12936;52.006;4.350;2024-01-30T12:35:55;11.30;;;1.53;;
24859;SDS011;12936;52.006;4.350;2024-01-30T12:38:30;10.07;;;1.73;;
24859;SDS011;12936;52.006;4.350;2024-01-30T12:40:59;6.30;;;1.37;;
24859;SDS011;12936;52.006;4.350;2024-01-30T12:43:27;7.37;;;1.83;;
24859;SDS011;12936;52.006;4.350;2024-01-30T12:46:04;12.23;;;1.57;;
24859;SDS011;12936;52.006;4.350;2024-01-30T12:48:33;9.27;;;1.43;;
24859;SDS011;12936;52.006;4.350;2024-01-30T12:51:02;9.87;;;1.60;;
24859;SDS011;12936;52.006;4.350;2024-01-30T12:53:32;8.87;;;1.50;;
24859;SDS011;12936;52.006;4.350;2024-01-30T12:56:00;13.03;;;1.53;;
24859;SDS011;12936;52.006;4.350;2024-01-30T12:58:28;10.23;;;1.67;;
24859;SDS011;12936;52.006;4.350;2024-01-30T13:00:57;5.00;;;1.10;;
24859;SDS011;12936;52.006;4.350;2024-01-30T13:03:25;13.57;;;2.07;;
24859;SDS011;12936;52.006;4.350;2024-01-30T13:05:54;7.70;;;1.50;;
24859;SDS011;12936;52.006;4.350;2024-01-30T13:08:23;9.93;;;1.80;;
24859;SDS011;12936;52.006;4.350;2024-01-30T13:10:52;8.43;;;1.40;;
24859;SDS011;12936;52.006;4.350;2024-01-30T13:13:20;7.37;;;1.30;;
24859;SDS011;12936;52.006;4.350;2024-01-30T13:15:48;12.33;;;2.20;;
24859;SDS011;12936;52.006;4.350;2024-01-30T13:18:17;7.23;;;1.30;;
24859;SDS011;12936;52.006;4.350;2024-01-30T13:20:45;5.60;;;0.90;;
24859;SDS011;12936;52.006;4.350;2024-01-30T13:23:13;10.43;;;2.07;;
24859;SDS011;12936;52.006;4.350;2024-01-30T13:25:41;7.70;;;2.00;;
24859;SDS011;12936;52.006;4.350;2024-01-30T13:28:11;8.73;;;1.40;;
24859;SDS011;12936;52.006;4.350;2024-01-30T13:30:39;10.83;;;1.70;;
24859;SDS011;12936;52.006;4.350;2024-01-30T13:33:07;7.77;;;1.63;;
24859;SDS011;12936;52.006;4.350;2024-01-30T13:35:35;6.10;;;1.73;;
24859;SDS011;12936;52.006;4.350;2024-01-30T13:38:10;10.27;;;2.23;;
24859;SDS011;12936;52.006;4.350;2024-01-30T13:40:40;5.47;;;2.20;;
24859;SDS011;12936;52.006;4.350;2024-01-30T13:43:08;10.17;;;2.47;;
24859;SDS011;12936;52.006;4.350;2024-01-30T13:45:40;5.63;;;2.40;;
24859;SDS011;12936;52.006;4.350;2024-01-30T13:48:08;8.80;;;3.10;;
24859;SDS011;12936;52.006;4.350;2024-01-30T13:50:37;8.20;;;2.30;;
24859;SDS011;12936;52.006;4.350;2024-01-30T13:53:05;7.43;;;2.80;;
24859;SDS011;12936;52.006;4.350;2024-01-30T13:55:33;11.87;;;3.07;;
24859;SDS011;12936;52.006;4.350;2024-01-30T13:58:02;8.20;;;2.20;;
24859;SDS011;12936;52.006;4.350;2024-01-30T14:00:30;6.03;;;2.23;;
24859;SDS011;12936;52.006;4.350;2024-01-30T14:03:00;7.57;;;2.30;;
24859;SDS011;12936;52.006;4.350;2024-01-30T14:05:29;7.63;;;2.30;;
24859;SDS011;12936;52.006;4.350;2024-01-30T14:07:58;6.13;;;1.63;;
24859;SDS011;12936;52.006;4.350;2024-01-30T14:10:27;7.67;;;1.80;;
24859;SDS011;12936;52.006;4.350;2024-01-30T14:12:55;4.57;;;2.10;;
24859;SDS011;12936;52.006;4.350;2024-01-30T14:15:26;4.53;;;2.37;;
24859;SDS011;12936;52.006;4.350;2024-01-30T14:17:55;6.93;;;2.30;;
24859;SDS011;12936;52.006;4.350;2024-01-30T14:20:26;6.10;;;2.43;;
24859;SDS011;12936;52.006;4.350;2024-01-30T14:22:55;6.67;;;2.83;;
24859;SDS011;12936;52.006;4.350;2024-01-30T14:25:23;7.37;;;3.63;;
24859;SDS011;12936;52.006;4.350;2024-01-30T14:27:51;9.83;;;4.40;;
24859;SDS011;12936;52.006;4.350;2024-01-30T14:30:20;5.37;;;3.30;;
24859;SDS011;12936;52.006;4.350;2024-01-30T14:32:48;10.07;;;4.77;;
24859;SDS011;12936;52.006;4.350;2024-01-30T14:35:17;15.30;;;4.70;;
24859;SDS011;12936;52.006;4.350;2024-01-30T14:37:47;9.77;;;4.27;;
24859;SDS011;12936;52.006;4.350;2024-01-30T14:40:16;5.90;;;4.00;;
24859;SDS011;12936;52.006;4.350;2024-01-30T14:42:45;8.27;;;4.13;;
24859;SDS011;12936;52.006;4.350;2024-01-30T14:45:15;6.60;;;4.00;;
24859;SDS011;12936;52.006;4.350;2024-01-30T14:47:44;6.17;;;3.63;;
24859;SDS011;12936;52.006;4.350;2024-01-30T14:50:13;7.17;;;4.03;;
24859;SDS011;12936;52.006;4.350;2024-01-30T14:52:43;10.30;;;4.70;;
24859;SDS011;12936;52.006;4.350;2024-01-30T14:55:13;9.50;;;4.57;;
24859;SDS011;12936;52.006;4.350;2024-01-30T14:57:41;9.87;;;4.60;;
24859;SDS011;12936;52.006;4.350;2024-01-30T15:00:12;11.53;;;4.50;;